sensor_id;sensor_type;location;lat;lon;timestamp;P1;durP1;ratioP1;P2;durP2;ratioP2
55368;SDS011;41247;49.736;8.752;2023-08-24T00:02:18;8.15;;;4.60;;
55368;SDS011;41247;49.736;8.752;2023-08-24T00:05:58;6.18;;;4.90;;
55368;SDS011;41247;49.736;8.752;2023-08-24T00:09:39;6.63;;;4.78;;
55368;SDS011;41247;49.736;8.752;2023-08-24T00:13:19;7.18;;;4.75;;
55368;SDS011;41247;49.736;8.752;2023-08-24T00:17:00;8.45;;;4.53;;
55368;SDS011;41247;49.736;8.752;2023-08-24T00:20:41;6.53;;;4.30;;
55368;SDS011;41247;49.736;8.752;2023-08-24T00:24:21;9.60;;;4.65;;
55368;SDS011;41247;49.736;8.752;2023-08-24T00:28:02;6.68;;;4.30;;
55368;SDS011;41247;49.736;8.752;2023-08-24T00:31:43;6.13;;;4.88;;
55368;SDS011;41247;49.736;8.752;2023-08-24T00:35:24;8.88;;;4.63;;
55368;SDS011;41247;49.736;8.752;2023-08-24T00:39:04;8.90;;;5.10;;
55368;SDS011;41247;49.736;8.752;2023-08-24T00:42:45;5.72;;;5.13;;
55368;SDS011;41247;49.736;8.752;2023-08-24T00:46:26;6.25;;;4.85;;
55368;SDS011;41247;49.736;8.752;2023-08-24T00:50:07;7.60;;;5.20;;
55368;SDS011;41247;49.736;8.752;2023-08-24T00:53:48;9.68;;;4.90;;
55368;SDS011;41247;49.736;8.752;2023-08-24T00:57:29;8.18;;;4.88;;
55368;SDS011;41247;49.736;8.752;2023-08-24T01:01:10;5.20;;;4.70;;
55368;SDS011;41247;49.736;8.752;2023-08-24T01:04:50;6.40;;;4.88;;
55368;SDS011;41247;49.736;8.752;2023-08-24T01:08:31;6.40;;;5.18;;
55368;SDS011;41247;49.736;8.752;2023-08-24T01:16:08;6.80;;;4.70;;
55368;SDS011;41247;49.736;8.752;2023-08-24T01:19:56;6.85;;;4.95;;
55368;SDS011;41247;49.736;8.752;2023-08-24T01:23:43;7.68;;;4.75;;
55368;SDS011;41247;49.736;8.752;2023-08-24T01:27:45;9.93;;;4.68;;
55368;SDS011;41247;49.736;8.752;2023-08-24T01:31:29;11.00;;;4.28;;
55368;SDS011;41247;49.736;8.752;2023-08-24T01:35:10;8.73;;;5.18;;
55368;SDS011;41247;49.736;8.752;2023-08-24T01:38:58;7.95;;;4.40;;
55368;SDS011;41247;49.736;8.752;2023-08-24T01:42:56;9.52;;;4.53;;
55368;SDS011;41247;49.736;8.752;2023-08-24T01:46:43;10.07;;;4.97;;
55368;SDS011;41247;49.736;8.752;2023-08-24T01:50:25;6.38;;;4.50;;
55368;SDS011;41247;49.736;8.752;2023-08-24T01:54:06;5.70;;;4.65;;
55368;SDS011;41247;49.736;8.752;2023-08-24T01:57:47;6.47;;;4.40;;
55368;SDS011;41247;49.736;8.752;2023-08-24T02:01:28;5.63;;;4.43;;
55368;SDS011;41247;49.736;8.752;2023-08-24T02:05:09;5.15;;;4.65;;
55368;SDS011;41247;49.736;8.752;2023-08-24T02:08:50;11.25;;;4.70;;
55368;SDS011;41247;49.736;8.752;2023-08-24T02:12:30;6.75;;;5.03;;
55368;SDS011;41247;49.736;8.752;2023-08-24T02:16:11;4.88;;;4.38;;
55368;SDS011;41247;49.736;8.752;2023-08-24T02:19:51;5.22;;;4.40;;
55368;SDS011;41247;49.736;8.752;2023-08-24T02:23:32;9.75;;;4.93;;
55368;SDS011;41247;49.736;8.752;2023-08-24T02:27:12;6.28;;;4.93;;
55368;SDS011;41247;49.736;8.752;2023-08-24T02:30:53;10.63;;;5.15;;
55368;SDS011;41247;49.736;8.752;2023-08-24T02:34:34;6.95;;;4.90;;
55368;SDS011;41247;49.736;8.752;2023-08-24T02:38:14;8.98;;;4.88;;
55368;SDS011;41247;49.736;8.752;2023-08-24T02:41:55;5.95;;;4.60;;
55368;SDS011;41247;49.736;8.752;2023-08-24T02:45:35;7.50;;;4.32;;
55368;SDS011;41247;49.736;8.752;2023-08-24T02:49:16;7.90;;;4.88;;
55368;SDS011;41247;49.736;8.752;2023-08-24T02:52:57;6.15;;;4.78;;
55368;SDS011;41247;49.736;8.752;2023-08-24T02:56:37;5.65;;;4.75;;
55368;SDS011;41247;49.736;8.752;2023-08-24T03:00:18;5.88;;;4.85;;
55368;SDS011;41247;49.736;8.752;2023-08-24T03:03:58;5.65;;;5.05;;
55368;SDS011;41247;49.736;8.752;2023-08-24T03:07:39;10.18;;;4.72;;
55368;SDS011;41247;49.736;8.752;2023-08-24T03:11:19;6.30;;;4.22;;
55368;SDS011;41247;49.736;8.752;2023-08-24T03:15:00;6.25;;;4.78;;
55368;SDS011;41247;49.736;8.752;2023-08-24T03:18:41;5.18;;;4.68;;
55368;SDS011;41247;49.736;8.752;2023-08-24T03:22:21;8.15;;;5.07;;
55368;SDS011;41247;49.736;8.752;2023-08-24T03:26:02;7.53;;;4.72;;
55368;SDS011;41247;49.736;8.752;2023-08-24T03:29:42;5.45;;;4.85;;
55368;SDS011;41247;49.736;8.752;2023-08-24T03:33:23;7.15;;;5.20;;
55368;SDS011;41247;49.736;8.752;2023-08-24T03:37:04;6.25;;;5.03;;
55368;SDS011;41247;49.736;8.752;2023-08-24T03:40:45;9.02;;;5.47;;
55368;SDS011;41247;49.736;8.752;2023-08-24T03:44:26;8.57;;;5.50;;
55368;SDS011;41247;49.736;8.752;2023-08-24T03:48:06;7.65;;;5.50;;
55368;SDS011;41247;49.736;8.752;2023-08-24T03:51:47;8.23;;;5.93;;
55368;SDS011;41247;49.736;8.752;2023-08-24T03:55:28;8.50;;;5.15;;
55368;SDS011;41247;49.736;8.752;2023-08-24T03:59:09;5.70;;;4.43;;
55368;SDS011;41247;49.736;8.752;2023-08-24T04:02:49;7.03;;;3.90;;
55368;SDS011;41247;49.736;8.752;2023-08-24T04:06:30;7.68;;;4.18;;
55368;SDS011;41247;49.736;8.752;2023-08-24T04:10:10;6.95;;;3.88;;
55368;SDS011;41247;49.736;8.752;2023-08-24T04:13:51;6.75;;;4.00;;
55368;SDS011;41247;49.736;8.752;2023-08-24T04:17:32;5.75;;;3.40;;
55368;SDS011;41247;49.736;8.752;2023-08-24T04:21:12;5.93;;;4.10;;
55368;SDS011;41247;49.736;8.752;2023-08-24T04:24:53;4.72;;;3.67;;
55368;SDS011;41247;49.736;8.752;2023-08-24T04:28:33;5.88;;;4.25;;
55368;SDS011;41247;49.736;8.752;2023-08-24T04:32:14;7.00;;;4.13;;
55368;SDS011;41247;49.736;8.752;2023-08-24T04:35:55;8.25;;;4.70;;
55368;SDS011;41247;49.736;8.752;2023-08-24T04:39:35;5.35;;;3.95;;
55368;SDS011;41247;49.736;8.752;2023-08-24T04:43:16;7.97;;;4.13;;
55368;SDS011;41247;49.736;8.752;2023-08-24T04:46:58;8.70;;;4.70;;
55368;SDS011;41247;49.736;8.752;2023-08-24T04:50:39;4.57;;;3.55;;
55368;SDS011;41247;49.736;8.752;2023-08-24T04:54:23;6.75;;;3.85;;
55368;SDS011;41247;49.736;8.752;2023-08-24T04:58:03;9.50;;;4.10;;
55368;SDS011;41247;49.736;8.752;2023-08-24T05:01:44;8.45;;;4.38;;
55368;SDS011;41247;49.736;8.752;2023-08-24T05:05:24;4.78;;;3.33;;
55368;SDS011;41247;49.736;8.752;2023-08-24T05:09:05;8.63;;;3.90;;
55368;SDS011;41247;49.736;8.752;2023-08-24T05:12:46;6.30;;;3.78;;
55368;SDS011;41247;49.736;8.752;2023-08-24T05:16:26;11.20;;;4.30;;
55368;SDS011;41247;49.736;8.752;2023-08-24T05:20:07;9.45;;;3.67;;
55368;SDS011;41247;49.736;8.752;2023-08-24T05:23:48;11.35;;;3.90;;
55368;SDS011;41247;49.736;8.752;2023-08-24T05:27:29;5.90;;;3.78;;
55368;SDS011;41247;49.736;8.752;2023-08-24T05:31:09;9.95;;;4.03;;
55368;SDS011;41247;49.736;8.752;2023-08-24T05:34:50;5.63;;;3.38;;
55368;SDS011;41247;49.736;8.752;2023-08-24T05:38:30;7.07;;;3.70;;
55368;SDS011;41247;49.736;8.752;2023-08-24T05:42:11;6.75;;;4.20;;
55368;SDS011;41247;49.736;8.752;2023-08-24T05:45:52;4.22;;;3.80;;
55368;SDS011;41247;49.736;8.752;2023-08-24T05:49:32;9.57;;;4.65;;
55368;SDS011;41247;49.736;8.752;2023-08-24T05:53:13;8.35;;;4.65;;
55368;SDS011;41247;49.736;8.752;2023-08-24T05:56:54;5.68;;;4.25;;
55368;SDS011;41247;49.736;8.752;2023-08-24T06:00:34;7.43;;;4.82;;
55368;SDS011;41247;49.736;8.752;2023-08-24T06:04:15;6.68;;;4.90;;
55368;SDS011;41247;49.736;8.752;2023-08-24T06:07:56;8.32;;;4.68;;
55368;SDS011;41247;49.736;8.752;2023-08-24T06:11:36;7.25;;;5.03;;
55368;SDS011;41247;49.736;8.752;2023-08-24T06:15:17;8.45;;;4.78;;
55368;SDS011;41247;49.736;8.752;2023-08-24T06:18:58;6.55;;;4.50;;
55368;SDS011;41247;49.736;8.752;2023-08-24T06:22:38;9.88;;;4.70;;
55368;SDS011;41247;49.736;8.752;2023-08-24T06:26:19;5.60;;;4.15;;
55368;SDS011;41247;49.736;8.752;2023-08-24T06:29:59;7.97;;;4.10;;
55368;SDS011;41247;49.736;8.752;2023-08-24T06:33:40;7.38;;;4.78;;
55368;SDS011;41247;49.736;8.752;2023-08-24T06:37:20;6.78;;;4.45;;
55368;SDS011;41247;49.736;8.752;2023-08-24T06:41:01;4.55;;;3.58;;
55368;SDS011;41247;49.736;8.752;2023-08-24T06:44:42;6.53;;;4.38;;
55368;SDS011;41247;49.736;8.752;2023-08-24T06:48:22;9.35;;;4.00;;
55368;SDS011;41247;49.736;8.752;2023-08-24T06:52:03;7.38;;;4.13;;
55368;SDS011;41247;49.736;8.752;2023-08-24T06:55:44;10.77;;;4.00;;
55368;SDS011;41247;49.736;8.752;2023-08-24T06:59:25;6.57;;;4.03;;
55368;SDS011;41247;49.736;8.752;2023-08-24T07:03:05;5.28;;;3.90;;
55368;SDS011;41247;49.736;8.752;2023-08-24T07:06:46;7.93;;;4.10;;
55368;SDS011;41247;49.736;8.752;2023-08-24T07:10:26;7.57;;;3.33;;
55368;SDS011;41247;49.736;8.752;2023-08-24T07:14:07;4.53;;;3.38;;
55368;SDS011;41247;49.736;8.752;2023-08-24T07:17:47;6.55;;;3.75;;
55368;SDS011;41247;49.736;8.752;2023-08-24T07:21:28;6.28;;;3.30;;
55368;SDS011;41247;49.736;8.752;2023-08-24T07:25:09;4.82;;;3.38;;
55368;SDS011;41247;49.736;8.752;2023-08-24T07:28:49;8.50;;;3.67;;
55368;SDS011;41247;49.736;8.752;2023-08-24T07:32:30;6.10;;;3.17;;
55368;SDS011;41247;49.736;8.752;2023-08-24T07:36:10;4.43;;;2.60;;
55368;SDS011;41247;49.736;8.752;2023-08-24T07:39:51;4.47;;;2.72;;
55368;SDS011;41247;49.736;8.752;2023-08-24T07:43:32;3.65;;;3.10;;
55368;SDS011;41247;49.736;8.752;2023-08-24T07:47:13;9.23;;;2.97;;
55368;SDS011;41247;49.736;8.752;2023-08-24T07:50:54;3.40;;;2.40;;
55368;SDS011;41247;49.736;8.752;2023-08-24T07:54:35;4.05;;;2.70;;
55368;SDS011;41247;49.736;8.752;2023-08-24T07:58:15;5.45;;;2.97;;
55368;SDS011;41247;49.736;8.752;2023-08-24T08:01:56;4.43;;;3.17;;
55368;SDS011;41247;49.736;8.752;2023-08-24T08:05:37;6.28;;;3.40;;
55368;SDS011;41247;49.736;8.752;2023-08-24T08:09:17;7.10;;;3.05;;
55368;SDS011;41247;49.736;8.752;2023-08-24T08:12:58;3.67;;;2.70;;
55368;SDS011;41247;49.736;8.752;2023-08-24T08:16:38;8.13;;;3.30;;
55368;SDS011;41247;49.736;8.752;2023-08-24T08:20:19;7.75;;;3.00;;
55368;SDS011;41247;49.736;8.752;2023-08-24T08:23:59;4.47;;;3.08;;
55368;SDS011;41247;49.736;8.752;2023-08-24T08:27:40;6.60;;;2.97;;
55368;SDS011;41247;49.736;8.752;2023-08-24T08:35:59;4.40;;;2.53;;
55368;SDS011;41247;49.736;8.752;2023-08-24T08:39:40;4.57;;;2.25;;
55368;SDS011;41247;49.736;8.752;2023-08-24T08:43:21;5.00;;;2.28;;
55368;SDS011;41247;49.736;8.752;2023-08-24T08:47:02;5.70;;;2.40;;
55368;SDS011;41247;49.736;8.752;2023-08-24T08:50:43;5.15;;;2.50;;
55368;SDS011;41247;49.736;8.752;2023-08-24T08:54:24;5.00;;;2.30;;
55368;SDS011;41247;49.736;8.752;2023-08-24T08:58:05;6.57;;;2.50;;
55368;SDS011;41247;49.736;8.752;2023-08-24T09:01:46;6.07;;;2.40;;
55368;SDS011;41247;49.736;8.752;2023-08-24T09:05:27;4.07;;;2.30;;
55368;SDS011;41247;49.736;8.752;2023-08-24T09:09:08;4.40;;;2.20;;
55368;SDS011;41247;49.736;8.752;2023-08-24T09:12:49;4.13;;;2.38;;
55368;SDS011;41247;49.736;8.752;2023-08-24T09:16:29;4.93;;;2.25;;
55368;SDS011;41247;49.736;8.752;2023-08-24T09:20:10;4.93;;;2.58;;
55368;SDS011;41247;49.736;8.752;2023-08-24T09:23:55;7.82;;;2.47;;
55368;SDS011;41247;49.736;8.752;2023-08-24T09:27:36;3.03;;;2.20;;
55368;SDS011;41247;49.736;8.752;2023-08-24T09:31:16;4.55;;;1.90;;
55368;SDS011;41247;49.736;8.752;2023-08-24T09:35:04;4.15;;;2.15;;
55368;SDS011;41247;49.736;8.752;2023-08-24T09:38:49;4.45;;;2.22;;
55368;SDS011;41247;49.736;8.752;2023-08-24T09:42:29;4.03;;;2.17;;
55368;SDS011;41247;49.736;8.752;2023-08-24T09:46:18;7.93;;;2.35;;
55368;SDS011;41247;49.736;8.752;2023-08-24T09:49:59;3.55;;;1.80;;
55368;SDS011;41247;49.736;8.752;2023-08-24T09:53:40;5.75;;;2.13;;
55368;SDS011;41247;49.736;8.752;2023-08-24T09:57:22;4.32;;;2.13;;
55368;SDS011;41247;49.736;8.752;2023-08-24T10:01:02;4.18;;;2.00;;
55368;SDS011;41247;49.736;8.752;2023-08-24T10:04:43;4.22;;;1.80;;
55368;SDS011;41247;49.736;8.752;2023-08-24T10:08:27;6.80;;;2.35;;
55368;SDS011;41247;49.736;8.752;2023-08-24T10:12:17;5.20;;;2.55;;
55368;SDS011;41247;49.736;8.752;2023-08-24T10:16:00;3.88;;;2.13;;
55368;SDS011;41247;49.736;8.752;2023-08-24T10:19:43;7.33;;;2.33;;
55368;SDS011;41247;49.736;8.752;2023-08-24T10:23:24;6.50;;;2.58;;
55368;SDS011;41247;49.736;8.752;2023-08-24T10:27:10;3.53;;;1.85;;
55368;SDS011;41247;49.736;8.752;2023-08-24T10:30:52;6.57;;;2.10;;
55368;SDS011;41247;49.736;8.752;2023-08-24T10:34:34;7.05;;;2.17;;
55368;SDS011;41247;49.736;8.752;2023-08-24T10:38:23;3.08;;;2.05;;
55368;SDS011;41247;49.736;8.752;2023-08-24T10:42:10;6.10;;;2.35;;
55368;SDS011;41247;49.736;8.752;2023-08-24T10:45:58;3.28;;;2.00;;
55368;SDS011;41247;49.736;8.752;2023-08-24T10:49:41;4.45;;;2.10;;
55368;SDS011;41247;49.736;8.752;2023-08-24T10:53:38;4.03;;;2.10;;
55368;SDS011;41247;49.736;8.752;2023-08-24T10:57:23;3.60;;;1.98;;
55368;SDS011;41247;49.736;8.752;2023-08-24T11:01:06;5.30;;;2.10;;
55368;SDS011;41247;49.736;8.752;2023-08-24T11:09:08;6.07;;;2.00;;
55368;SDS011;41247;49.736;8.752;2023-08-24T11:16:54;5.10;;;1.70;;
55368;SDS011;41247;49.736;8.752;2023-08-24T11:20:59;3.60;;;2.10;;
55368;SDS011;41247;49.736;8.752;2023-08-24T11:24:45;3.55;;;2.17;;
55368;SDS011;41247;49.736;8.752;2023-08-24T11:28:27;3.67;;;2.35;;
55368;SDS011;41247;49.736;8.752;2023-08-24T11:32:10;4.40;;;2.00;;
55368;SDS011;41247;49.736;8.752;2023-08-24T11:35:51;5.53;;;2.20;;
55368;SDS011;41247;49.736;8.752;2023-08-24T11:39:31;6.47;;;2.13;;
55368;SDS011;41247;49.736;8.752;2023-08-24T11:43:12;3.85;;;2.33;;
55368;SDS011;41247;49.736;8.752;2023-08-24T11:47:01;4.25;;;1.90;;
55368;SDS011;41247;49.736;8.752;2023-08-24T11:50:42;4.13;;;2.00;;
55368;SDS011;41247;49.736;8.752;2023-08-24T11:54:23;3.33;;;1.92;;
55368;SDS011;41247;49.736;8.752;2023-08-24T11:58:03;9.75;;;2.50;;
55368;SDS011;41247;49.736;8.752;2023-08-24T12:01:44;3.67;;;1.95;;
55368;SDS011;41247;49.736;8.752;2023-08-24T12:05:26;4.63;;;1.95;;
55368;SDS011;41247;49.736;8.752;2023-08-24T12:09:06;6.72;;;2.28;;
55368;SDS011;41247;49.736;8.752;2023-08-24T12:12:47;3.63;;;2.20;;
55368;SDS011;41247;49.736;8.752;2023-08-24T12:16:30;6.45;;;2.22;;
55368;SDS011;41247;49.736;8.752;2023-08-24T12:20:19;6.18;;;2.05;;
55368;SDS011;41247;49.736;8.752;2023-08-24T12:24:02;4.57;;;2.50;;
55368;SDS011;41247;49.736;8.752;2023-08-24T12:27:45;7.90;;;2.22;;
55368;SDS011;41247;49.736;8.752;2023-08-24T12:31:26;3.80;;;2.20;;
55368;SDS011;41247;49.736;8.752;2023-08-24T12:35:07;4.90;;;2.15;;
55368;SDS011;41247;49.736;8.752;2023-08-24T12:38:49;5.43;;;2.45;;
55368;SDS011;41247;49.736;8.752;2023-08-24T12:42:30;6.40;;;2.40;;
55368;SDS011;41247;49.736;8.752;2023-08-24T12:46:10;5.80;;;2.03;;
55368;SDS011;41247;49.736;8.752;2023-08-24T12:49:51;4.13;;;2.30;;
55368;SDS011;41247;49.736;8.752;2023-08-24T12:53:32;4.30;;;2.08;;
55368;SDS011;41247;49.736;8.752;2023-08-24T12:57:12;3.80;;;2.42;;
55368;SDS011;41247;49.736;8.752;2023-08-24T13:00:53;6.55;;;2.25;;
55368;SDS011;41247;49.736;8.752;2023-08-24T13:04:33;3.97;;;2.08;;
55368;SDS011;41247;49.736;8.752;2023-08-24T13:08:14;3.38;;;2.05;;
55368;SDS011;41247;49.736;8.752;2023-08-24T13:11:55;3.30;;;2.17;;
55368;SDS011;41247;49.736;8.752;2023-08-24T13:15:35;3.13;;;2.22;;
55368;SDS011;41247;49.736;8.752;2023-08-24T13:19:16;4.00;;;2.13;;
55368;SDS011;41247;49.736;8.752;2023-08-24T13:22:56;4.43;;;2.65;;
55368;SDS011;41247;49.736;8.752;2023-08-24T13:26:37;6.65;;;2.33;;
55368;SDS011;41247;49.736;8.752;2023-08-24T13:30:17;4.70;;;2.45;;
55368;SDS011;41247;49.736;8.752;2023-08-24T13:33:58;6.00;;;2.50;;
55368;SDS011;41247;49.736;8.752;2023-08-24T13:37:39;5.95;;;2.20;;
55368;SDS011;41247;49.736;8.752;2023-08-24T13:41:19;4.20;;;2.60;;
55368;SDS011;41247;49.736;8.752;2023-08-24T13:45:00;4.63;;;2.25;;
55368;SDS011;41247;49.736;8.752;2023-08-24T13:48:43;4.72;;;2.65;;
55368;SDS011;41247;49.736;8.752;2023-08-24T13:52:23;3.55;;;2.60;;
55368;SDS011;41247;49.736;8.752;2023-08-24T13:56:04;5.40;;;2.72;;
55368;SDS011;41247;49.736;8.752;2023-08-24T13:59:45;4.35;;;2.42;;
55368;SDS011;41247;49.736;8.752;2023-08-24T14:03:26;6.28;;;2.55;;
55368;SDS011;41247;49.736;8.752;2023-08-24T14:07:06;4.88;;;2.28;;
55368;SDS011;41247;49.736;8.752;2023-08-24T14:10:47;5.10;;;2.47;;
55368;SDS011;41247;49.736;8.752;2023-08-24T14:14:27;4.95;;;2.40;;
55368;SDS011;41247;49.736;8.752;2023-08-24T14:18:10;10.02;;;2.40;;
55368;SDS011;41247;49.736;8.752;2023-08-24T14:21:51;4.90;;;2.60;;
55368;SDS011;41247;49.736;8.752;2023-08-24T14:25:32;4.82;;;2.70;;
55368;SDS011;41247;49.736;8.752;2023-08-24T14:29:13;3.95;;;2.55;;
55368;SDS011;41247;49.736;8.752;2023-08-24T14:32:54;11.40;;;3.28;;
55368;SDS011;41247;49.736;8.752;2023-08-24T14:36:34;6.72;;;3.20;;
55368;SDS011;41247;49.736;8.752;2023-08-24T14:40:15;4.32;;;3.00;;
55368;SDS011;41247;49.736;8.752;2023-08-24T14:43:56;12.65;;;3.40;;
55368;SDS011;41247;49.736;8.752;2023-08-24T14:47:36;6.18;;;3.00;;
55368;SDS011;41247;49.736;8.752;2023-08-24T14:51:17;7.78;;;3.60;;
55368;SDS011;41247;49.736;8.752;2023-08-24T14:54:57;9.65;;;3.03;;
55368;SDS011;41247;49.736;8.752;2023-08-24T14:58:38;12.02;;;3.70;;
55368;SDS011;41247;49.736;8.752;2023-08-24T15:02:19;9.95;;;3.80;;
55368;SDS011;41247;49.736;8.752;2023-08-24T15:06:00;8.10;;;3.88;;
55368;SDS011;41247;49.736;8.752;2023-08-24T15:09:42;7.55;;;3.90;;
55368;SDS011;41247;49.736;8.752;2023-08-24T15:13:24;13.57;;;4.25;;
55368;SDS011;41247;49.736;8.752;2023-08-24T15:17:05;11.98;;;5.00;;
55368;SDS011;41247;49.736;8.752;2023-08-24T15:20:46;11.02;;;4.45;;
55368;SDS011;41247;49.736;8.752;2023-08-24T15:24:26;8.13;;;4.88;;
55368;SDS011;41247;49.736;8.752;2023-08-24T15:28:07;10.00;;;5.38;;
55368;SDS011;41247;49.736;8.752;2023-08-24T15:31:47;8.57;;;5.20;;
55368;SDS011;41247;49.736;8.752;2023-08-24T15:35:28;11.77;;;5.10;;
55368;SDS011;41247;49.736;8.752;2023-08-24T15:39:08;10.00;;;5.70;;
55368;SDS011;41247;49.736;8.752;2023-08-24T15:42:49;7.22;;;4.45;;
55368;SDS011;41247;49.736;8.752;2023-08-24T15:46:30;6.32;;;4.70;;
55368;SDS011;41247;49.736;8.752;2023-08-24T15:50:10;8.65;;;5.15;;
55368;SDS011;41247;49.736;8.752;2023-08-24T15:53:51;9.63;;;5.50;;
55368;SDS011;41247;49.736;8.752;2023-08-24T15:57:32;12.13;;;4.40;;
55368;SDS011;41247;49.736;8.752;2023-08-24T16:01:12;8.23;;;4.90;;
55368;SDS011;41247;49.736;8.752;2023-08-24T16:04:53;6.18;;;4.68;;
55368;SDS011;41247;49.736;8.752;2023-08-24T16:08:33;7.43;;;5.10;;
55368;SDS011;41247;49.736;8.752;2023-08-24T16:12:14;7.63;;;4.70;;
55368;SDS011;41247;49.736;8.752;2023-08-24T16:16:08;7.05;;;4.55;;
55368;SDS011;41247;49.736;8.752;2023-08-24T16:19:49;13.05;;;4.70;;
55368;SDS011;41247;49.736;8.752;2023-08-24T16:32:03;10.40;;;5.18;;
55368;SDS011;41247;49.736;8.752;2023-08-24T16:35:44;10.32;;;5.18;;
55368;SDS011;41247;49.736;8.752;2023-08-24T16:39:25;10.15;;;4.60;;
55368;SDS011;41247;49.736;8.752;2023-08-24T16:43:05;10.32;;;4.57;;
55368;SDS011;41247;49.736;8.752;2023-08-24T16:46:46;6.78;;;4.70;;
55368;SDS011;41247;49.736;8.752;2023-08-24T16:50:27;9.10;;;5.05;;
55368;SDS011;41247;49.736;8.752;2023-08-24T17:01:54;12.63;;;4.97;;
55368;SDS011;41247;49.736;8.752;2023-08-24T17:05:34;6.40;;;5.30;;
55368;SDS011;41247;49.736;8.752;2023-08-24T17:09:15;10.02;;;5.28;;
55368;SDS011;41247;49.736;8.752;2023-08-24T17:12:55;14.95;;;5.80;;
55368;SDS011;41247;49.736;8.752;2023-08-24T17:16:36;11.85;;;6.10;;
55368;SDS011;41247;49.736;8.752;2023-08-24T17:20:17;9.75;;;6.25;;
55368;SDS011;41247;49.736;8.752;2023-08-24T17:24:05;6.57;;;5.85;;
55368;SDS011;41247;49.736;8.752;2023-08-24T17:27:46;6.93;;;6.22;;
55368;SDS011;41247;49.736;8.752;2023-08-24T17:31:41;13.70;;;7.03;;
55368;SDS011;41247;49.736;8.752;2023-08-24T17:39:46;17.70;;;10.00;;
55368;SDS011;41247;49.736;8.752;2023-08-24T17:43:27;18.15;;;9.48;;
55368;SDS011;41247;49.736;8.752;2023-08-24T17:47:08;16.95;;;9.70;;
55368;SDS011;41247;49.736;8.752;2023-08-24T17:50:54;13.38;;;10.07;;
55368;SDS011;41247;49.736;8.752;2023-08-24T17:54:37;16.83;;;12.25;;
55368;SDS011;41247;49.736;8.752;2023-08-24T17:58:20;27.08;;;13.98;;
55368;SDS011;41247;49.736;8.752;2023-08-24T18:02:02;20.13;;;12.55;;
55368;SDS011;41247;49.736;8.752;2023-08-24T18:05:45;18.55;;;12.35;;
55368;SDS011;41247;49.736;8.752;2023-08-24T18:09:26;27.42;;;14.43;;
55368;SDS011;41247;49.736;8.752;2023-08-24T18:13:06;26.20;;;15.80;;
55368;SDS011;41247;49.736;8.752;2023-08-24T18:16:47;21.52;;;14.52;;
55368;SDS011;41247;49.736;8.752;2023-08-24T18:20:34;17.20;;;11.70;;
55368;SDS011;41247;49.736;8.752;2023-08-24T18:24:15;21.38;;;13.15;;
55368;SDS011;41247;49.736;8.752;2023-08-24T18:28:07;22.83;;;14.98;;
55368;SDS011;41247;49.736;8.752;2023-08-24T18:31:58;22.42;;;15.32;;
55368;SDS011;41247;49.736;8.752;2023-08-24T18:35:48;21.25;;;16.20;;
55368;SDS011;41247;49.736;8.752;2023-08-24T18:39:33;20.45;;;14.20;;
55368;SDS011;41247;49.736;8.752;2023-08-24T18:43:17;25.48;;;17.63;;
55368;SDS011;41247;49.736;8.752;2023-08-24T18:47:07;23.60;;;17.10;;
55368;SDS011;41247;49.736;8.752;2023-08-24T18:50:53;25.10;;;18.08;;
55368;SDS011;41247;49.736;8.752;2023-08-24T18:54:51;22.75;;;19.20;;
55368;SDS011;41247;49.736;8.752;2023-08-24T18:58:32;22.25;;;18.15;;
55368;SDS011;41247;49.736;8.752;2023-08-24T19:02:12;23.98;;;18.23;;
55368;SDS011;41247;49.736;8.752;2023-08-24T19:05:53;19.80;;;15.35;;
55368;SDS011;41247;49.736;8.752;2023-08-24T19:09:33;16.30;;;12.85;;
55368;SDS011;41247;49.736;8.752;2023-08-24T19:13:14;21.58;;;13.02;;
55368;SDS011;41247;49.736;8.752;2023-08-24T19:16:57;16.90;;;10.60;;
55368;SDS011;41247;49.736;8.752;2023-08-24T19:20:41;17.25;;;11.75;;
55368;SDS011;41247;49.736;8.752;2023-08-24T19:24:22;19.90;;;11.00;;
55368;SDS011;41247;49.736;8.752;2023-08-24T19:28:02;18.05;;;11.25;;
55368;SDS011;41247;49.736;8.752;2023-08-24T19:31:43;15.40;;;9.77;;
55368;SDS011;41247;49.736;8.752;2023-08-24T19:35:24;10.75;;;7.30;;
55368;SDS011;41247;49.736;8.752;2023-08-24T19:39:04;10.10;;;6.38;;
55368;SDS011;41247;49.736;8.752;2023-08-24T19:42:48;8.77;;;4.95;;
55368;SDS011;41247;49.736;8.752;2023-08-24T19:46:35;6.70;;;5.10;;
55368;SDS011;41247;49.736;8.752;2023-08-24T19:50:26;7.63;;;4.75;;
55368;SDS011;41247;49.736;8.752;2023-08-24T19:54:10;10.88;;;4.38;;
55368;SDS011;41247;49.736;8.752;2023-08-24T19:57:59;5.32;;;4.55;;
55368;SDS011;41247;49.736;8.752;2023-08-24T20:01:43;9.90;;;5.20;;
55368;SDS011;41247;49.736;8.752;2023-08-24T20:05:35;10.15;;;5.05;;
55368;SDS011;41247;49.736;8.752;2023-08-24T20:09:31;7.93;;;4.32;;
55368;SDS011;41247;49.736;8.752;2023-08-24T20:17:40;8.25;;;4.80;;
55368;SDS011;41247;49.736;8.752;2023-08-24T20:45:28;7.95;;;4.50;;
55368;SDS011;41247;49.736;8.752;2023-08-24T20:50:27;13.27;;;4.63;;
55368;SDS011;41247;49.736;8.752;2023-08-24T20:54:07;8.70;;;5.00;;
55368;SDS011;41247;49.736;8.752;2023-08-24T20:57:48;7.30;;;4.45;;
55368;SDS011;41247;49.736;8.752;2023-08-24T21:01:29;12.25;;;5.30;;
55368;SDS011;41247;49.736;8.752;2023-08-24T21:05:10;9.57;;;5.15;;
55368;SDS011;41247;49.736;8.752;2023-08-24T21:08:58;6.70;;;4.97;;
55368;SDS011;41247;49.736;8.752;2023-08-24T21:12:38;6.50;;;5.13;;
55368;SDS011;41247;49.736;8.752;2023-08-24T21:20:03;10.32;;;6.22;;
55368;SDS011;41247;49.736;8.752;2023-08-24T21:23:44;10.18;;;6.00;;
55368;SDS011;41247;49.736;8.752;2023-08-24T21:27:28;9.40;;;7.13;;
55368;SDS011;41247;49.736;8.752;2023-08-24T21:31:08;12.35;;;7.43;;
55368;SDS011;41247;49.736;8.752;2023-08-24T21:34:49;17.95;;;8.00;;
55368;SDS011;41247;49.736;8.752;2023-08-24T21:38:30;12.15;;;7.95;;
55368;SDS011;41247;49.736;8.752;2023-08-24T21:42:16;10.23;;;7.35;;
55368;SDS011;41247;49.736;8.752;2023-08-24T21:45:58;10.65;;;8.02;;
55368;SDS011;41247;49.736;8.752;2023-08-24T21:53:21;10.98;;;7.65;;
55368;SDS011;41247;49.736;8.752;2023-08-24T21:57:02;12.82;;;8.50;;
55368;SDS011;41247;49.736;8.752;2023-08-24T22:00:46;13.45;;;8.75;;
55368;SDS011;41247;49.736;8.752;2023-08-24T22:04:27;13.82;;;8.93;;
55368;SDS011;41247;49.736;8.752;2023-08-24T22:08:08;11.40;;;8.98;;
55368;SDS011;41247;49.736;8.752;2023-08-24T22:11:48;15.13;;;9.93;;
55368;SDS011;41247;49.736;8.752;2023-08-24T22:15:29;16.67;;;10.90;;
55368;SDS011;41247;49.736;8.752;2023-08-24T22:19:10;16.42;;;12.05;;
55368;SDS011;41247;49.736;8.752;2023-08-24T22:22:50;13.02;;;8.60;;
55368;SDS011;41247;49.736;8.752;2023-08-24T22:26:31;14.90;;;9.27;;
55368;SDS011;41247;49.736;8.752;2023-08-24T22:30:12;16.58;;;8.50;;
55368;SDS011;41247;49.736;8.752;2023-08-24T22:33:53;13.10;;;8.20;;
55368;SDS011;41247;49.736;8.752;2023-08-24T22:37:33;11.25;;;8.40;;
55368;SDS011;41247;49.736;8.752;2023-08-24T22:41:14;10.32;;;7.93;;
55368;SDS011;41247;49.736;8.752;2023-08-24T22:44:54;10.63;;;7.88;;
55368;SDS011;41247;49.736;8.752;2023-08-24T22:48:35;11.45;;;7.18;;
55368;SDS011;41247;49.736;8.752;2023-08-24T22:52:20;14.25;;;7.97;;
55368;SDS011;41247;49.736;8.752;2023-08-24T22:56:01;10.32;;;8.57;;
55368;SDS011;41247;49.736;8.752;2023-08-24T22:59:42;14.43;;;9.85;;
55368;SDS011;41247;49.736;8.752;2023-08-24T23:03:23;13.35;;;9.25;;
55368;SDS011;41247;49.736;8.752;2023-08-24T23:07:03;16.75;;;9.05;;
55368;SDS011;41247;49.736;8.752;2023-08-24T23:10:45;12.30;;;9.13;;
55368;SDS011;41247;49.736;8.752;2023-08-24T23:14:25;14.23;;;9.45;;
55368;SDS011;41247;49.736;8.752;2023-08-24T23:18:06;13.27;;;7.75;;
55368;SDS011;41247;49.736;8.752;2023-08-24T23:21:48;8.70;;;6.93;;
55368;SDS011;41247;49.736;8.752;2023-08-24T23:25:28;9.00;;;7.43;;